createdAt,value
2023-04-18T00:00:44.848Z,99099.52
2023-04-18T00:05:48.240Z,99100.57
2023-04-18T00:10:50.039Z,99103.34
2023-04-18T00:15:54.210Z,99099.58
2023-04-18T00:20:56.826Z,99097.55
2023-04-18T00:25:58.850Z,99100.47
2023-04-18T00:31:00.765Z,99098.25
2023-04-18T00:36:03.358Z,99101.16
2023-04-18T00:41:05.099Z,99100.11
2023-04-18T00:46:06.937Z,99098.73
2023-04-18T00:51:09.857Z,99097.83
2023-04-18T00:56:11.825Z,99093.15
2023-04-18T01:01:13.694Z,99087.95
2023-04-18T01:06:15.536Z,99086.41
2023-04-18T01:11:17.607Z,99086.08
2023-04-18T01:16:22.309Z,99086.09
2023-04-18T01:21:24.767Z,99086.27
2023-04-18T01:26:28.015Z,99086.95
2023-04-18T01:31:30.802Z,99087.60
2023-04-18T01:36:33.155Z,99083.83
2023-04-18T01:41:35.210Z,99081.42
2023-04-18T01:46:36.974Z,99081.10
2023-04-18T01:51:38.973Z,99075.66
2023-04-18T01:56:40.720Z,99071.02
2023-04-18T02:01:42.841Z,99069.44
2023-04-18T02:06:44.547Z,99069.47
2023-04-18T02:11:46.506Z,99072.55
2023-04-18T02:16:48.297Z,99077.16
2023-04-18T02:21:51.294Z,99071.79
2023-04-18T02:26:53.034Z,99067.61
2023-04-18T02:31:54.721Z,99064.84
2023-04-18T02:36:56.417Z,99063.95
2023-04-18T02:41:58.816Z,99061.70
2023-04-18T02:47:00.513Z,99063.91
2023-04-18T02:52:02.266Z,99071.95
2023-04-18T02:57:04.039Z,99074.83
2023-04-18T03:02:29.069Z,99077.15
2023-04-18T03:07:33.992Z,99078.41
2023-04-18T03:12:35.800Z,99087.70
2023-04-18T03:17:38.000Z,99091.89
2023-04-18T03:22:40.321Z,99087.98
2023-04-18T03:27:43.270Z,99091.77
2023-04-18T03:32:49.023Z,99090.34
2023-04-18T03:37:51.152Z,99086.98
2023-04-18T03:42:59.939Z,99090.28
2023-04-18T03:48:02.059Z,99094.09
2023-04-18T03:53:06.758Z,99093.79
2023-04-18T03:58:10.263Z,99096.92
2023-04-18T04:07:12.079Z,99107.80
2023-04-18T04:12:13.886Z,99116.49
2023-04-18T04:17:15.997Z,99122.22
2023-04-18T04:22:17.784Z,99122.13
2023-04-18T04:27:20.623Z,99119.65
2023-04-18T04:32:22.714Z,99128.90
2023-04-18T04:37:24.780Z,99126.48
2023-04-18T04:42:35.926Z,99140.48
2023-04-18T04:47:43.335Z,99145.23
2023-04-18T04:52:45.430Z,99151.20
2023-04-18T04:57:47.838Z,99158.38
2023-04-18T05:03:02.360Z,99163.67
2023-04-18T05:08:04.672Z,99163.27
2023-04-18T05:13:06.662Z,99165.63
2023-04-18T05:18:09.098Z,99170.37
2023-04-18T05:23:10.934Z,99169.85
2023-04-18T05:28:12.606Z,99174.63
2023-04-18T05:33:14.345Z,99177.75
2023-04-18T05:38:16.084Z,99182.27
2023-04-18T05:43:19.421Z,99182.52
2023-04-18T05:48:23.001Z,99188.34
2023-04-18T05:53:24.749Z,99193.40
2023-04-18T05:58:28.718Z,99200.98
2023-04-18T06:03:31.165Z,99198.92
2023-04-18T06:08:33.374Z,99203.58
2023-04-18T06:13:35.474Z,99210.86
2023-04-18T06:18:37.619Z,99213.55
2023-04-18T06:23:39.299Z,99220.02
2023-04-18T06:28:41.108Z,99221.52
2023-04-18T06:33:42.850Z,99223.55
2023-04-18T06:38:45.150Z,99226.89
2023-04-18T06:44:01.613Z,99228.69
2023-04-18T06:49:04.254Z,99227.00
2023-04-18T06:54:06.197Z,99233.11
2023-04-18T06:59:07.931Z,99235.33
2023-04-18T07:04:09.838Z,99231.52
2023-04-18T07:09:11.829Z,99238.02
2023-04-18T07:14:13.747Z,99247.50
2023-04-18T07:19:15.651Z,99246.20
2023-04-18T07:24:17.403Z,99244.89
2023-04-18T07:29:22.031Z,99249.36
2023-04-18T07:34:23.724Z,99251.67
2023-04-18T07:39:25.578Z,99246.70
2023-04-18T07:44:27.582Z,99251.65
2023-04-18T07:49:29.313Z,99252.66
2023-04-18T07:54:31.078Z,99248.89
2023-04-18T07:59:32.982Z,99251.16
2023-04-18T08:04:34.799Z,99252.20
2023-04-18T08:09:36.660Z,99247.57
2023-04-18T08:14:38.485Z,99258.20
2023-04-18T08:19:40.166Z,99255.37
2023-04-18T08:24:51.078Z,99262.90
2023-04-18T08:30:04.747Z,99268.73
2023-04-18T08:35:06.707Z,99271.20
2023-04-18T08:40:08.977Z,99274.02
2023-04-18T08:45:15.185Z,99277.73
2023-04-18T08:50:17.323Z,99276.92
2023-04-18T08:55:19.435Z,99275.45
2023-04-18T09:00:22.731Z,99278.61
2023-04-18T09:05:26.895Z,99278.42
2023-04-18T09:10:32.928Z,99277.46
2023-04-18T09:15:35.252Z,99279.41
2023-04-18T09:20:42.194Z,99281.70
2023-04-18T09:25:48.985Z,99279.09
2023-04-18T09:30:52.694Z,99275.88
2023-04-18T09:35:55.734Z,99272.23
2023-04-18T09:41:11.140Z,99268.90
2023-04-18T09:46:13.425Z,99272.25
2023-04-18T09:51:16.632Z,99272.48
2023-04-18T09:56:26.066Z,99277.36
2023-04-18T10:01:29.733Z,99275.98
2023-04-18T10:06:33.958Z,99274.41
2023-04-18T10:11:36.577Z,99268.87
2023-04-18T10:16:39.323Z,99270.27
2023-04-18T10:21:51.799Z,99261.09
2023-04-18T10:26:53.552Z,99257.45
2023-04-18T10:31:55.777Z,99257.27
2023-04-18T10:37:05.532Z,99253.14
2023-04-18T10:42:07.240Z,99253.65
2023-04-18T10:47:08.965Z,99253.96
2023-04-18T10:57:13.944Z,99239.71
2023-04-18T11:02:26.272Z,99239.85
2023-04-18T11:07:36.460Z,99237.27
2023-04-18T11:12:40.822Z,99230.50
2023-04-18T11:17:42.930Z,99228.83
2023-04-18T11:22:59.064Z,99229.22
2023-04-18T11:28:02.743Z,99232.48
2023-04-18T11:33:09.059Z,99224.14
2023-04-18T11:38:15.602Z,99226.20
2023-04-18T11:43:23.261Z,99228.17
2023-04-18T11:48:37.736Z,99229.52
2023-04-18T11:53:39.937Z,99227.91
2023-04-18T11:58:42.930Z,99225.04
2023-04-18T12:03:59.422Z,99231.33
2023-04-18T12:09:01.547Z,99229.59
2023-04-18T12:14:04.195Z,99223.21
2023-04-18T12:19:06.316Z,99216.81
2023-04-18T12:24:18.396Z,99212.80
2023-04-18T12:29:20.124Z,99211.08
2023-04-18T12:34:21.960Z,99206.98
2023-04-18T12:39:23.734Z,99204.98
2023-04-18T12:44:25.371Z,99199.55
2023-04-18T12:49:26.993Z,99192.41
2023-04-18T12:54:28.680Z,99196.36
2023-04-18T12:59:30.842Z,99194.00
2023-04-18T13:04:32.919Z,99185.44
2023-04-18T13:09:35.557Z,99184.34
2023-04-18T13:14:37.268Z,99175.00
2023-04-18T13:19:38.943Z,99180.02
2023-04-18T13:24:40.876Z,99183.13
2023-04-18T13:29:43.807Z,99182.30
2023-04-18T13:34:47.332Z,99180.79
2023-04-18T13:39:49.177Z,99180.85
2023-04-18T13:44:50.840Z,99185.68
2023-04-18T13:49:52.686Z,99179.67
2023-04-18T13:54:55.524Z,99179.92
2023-04-18T13:59:57.449Z,99184.73
2023-04-18T14:04:59.314Z,99181.83
2023-04-18T14:10:01.147Z,99179.91
2023-04-18T14:15:15.788Z,99181.70
2023-04-18T14:20:20.789Z,99179.56
2023-04-18T14:25:22.528Z,99178.96
2023-04-18T14:30:24.678Z,99182.59
2023-04-18T14:35:26.417Z,99180.50
2023-04-18T14:40:29.145Z,99185.65
2023-04-18T14:45:33.457Z,99187.95
2023-04-18T14:50:36.325Z,99185.22
2023-04-18T14:55:37.982Z,99185.85
2023-04-18T15:00:39.647Z,99182.64
2023-04-18T15:05:46.362Z,99184.34
2023-04-18T15:10:48.155Z,99183.55
2023-04-18T15:15:54.212Z,99181.43
2023-04-18T15:20:56.990Z,99182.32
2023-04-18T15:25:59.653Z,99185.47
2023-04-18T15:31:01.457Z,99189.07
2023-04-18T15:36:03.298Z,99188.20
2023-04-18T15:41:05.254Z,99191.98
2023-04-18T15:46:07.491Z,99197.98
2023-04-18T15:51:09.261Z,99199.28
2023-04-18T15:56:10.972Z,99202.77
2023-04-18T16:01:16.113Z,99201.92
2023-04-18T16:06:22.322Z,99205.05
2023-04-18T16:11:27.569Z,99201.60
2023-04-18T16:16:29.516Z,99205.75
2023-04-18T16:21:32.562Z,99210.08
2023-04-18T16:26:34.259Z,99206.60
2023-04-18T16:31:36.172Z,99207.27
2023-04-18T16:36:38.173Z,99211.40
2023-04-18T16:41:39.868Z,99211.23
2023-04-18T16:46:41.752Z,99208.46
2023-04-18T16:51:43.611Z,99209.46
2023-04-18T16:56:45.673Z,99211.48
2023-04-18T17:01:47.435Z,99209.20
2023-04-18T17:06:51.853Z,99214.85
2023-04-18T17:11:53.971Z,99217.20
2023-04-18T17:16:55.874Z,99225.77
2023-04-18T17:21:57.591Z,99227.25
2023-04-18T17:27:00.320Z,99232.35
2023-04-18T17:32:02.070Z,99234.88
2023-04-18T17:37:05.407Z,99239.30
2023-04-18T17:42:07.127Z,99241.15
2023-04-18T17:47:08.851Z,99240.06
2023-04-18T17:52:10.767Z,99250.88
2023-04-18T17:57:12.967Z,99253.55
2023-04-18T18:02:15.219Z,99255.80
2023-04-18T18:07:17.148Z,99256.05
2023-04-18T18:12:18.854Z,99257.00
2023-04-18T18:17:20.584Z,99264.80
2023-04-18T18:22:24.852Z,99267.14
2023-04-18T18:27:26.512Z,99271.82
2023-04-18T18:32:28.609Z,99274.45
2023-04-18T18:37:30.327Z,99274.00
2023-04-18T18:42:32.084Z,99274.04
2023-04-18T18:47:34.407Z,99275.98
2023-04-18T18:52:36.964Z,99273.58
2023-04-18T18:57:38.849Z,99273.56
2023-04-18T19:02:40.840Z,99271.85
2023-04-18T19:07:42.875Z,99272.01
2023-04-18T19:12:44.859Z,99271.45
2023-04-18T19:17:47.089Z,99271.69
2023-04-18T19:22:49.257Z,99269.60
2023-04-18T19:27:51.315Z,99274.45
2023-04-18T19:32:53.603Z,99271.66
2023-04-18T19:38:01.560Z,99267.66
2023-04-18T19:43:03.322Z,99267.02
2023-04-18T19:48:05.720Z,99263.76
2023-04-18T19:53:08.336Z,99262.46
2023-04-18T19:58:10.043Z,99258.96
2023-04-18T20:03:15.196Z,99257.39
2023-04-18T20:08:17.430Z,99258.21
2023-04-18T20:13:19.099Z,99254.94
2023-04-18T20:18:21.374Z,99252.52
2023-04-18T20:23:23.091Z,99251.51
2023-04-18T20:28:24.910Z,99251.34
2023-04-18T20:33:26.704Z,99252.04
2023-04-18T20:38:29.837Z,99244.33
2023-04-18T20:43:36.635Z,99242.31
2023-04-18T20:48:39.906Z,99237.20
2023-04-18T20:53:41.856Z,99235.20
2023-04-18T20:58:43.665Z,99231.60
2023-04-18T21:03:45.732Z,99226.88
2023-04-18T21:08:48.785Z,99226.59
2023-04-18T21:13:55.472Z,99221.48
2023-04-18T21:18:57.367Z,99213.11
2023-04-18T21:23:59.039Z,99208.34
2023-04-18T21:29:04.667Z,99203.23
2023-04-18T21:34:06.540Z,99201.38
2023-04-18T21:39:08.430Z,99199.02
2023-04-18T21:44:11.265Z,99197.38
2023-04-18T21:49:16.622Z,99187.44
2023-04-18T21:54:19.923Z,99184.08
2023-04-18T21:59:21.787Z,99176.74
2023-04-18T22:04:26.199Z,99174.89
2023-04-18T22:09:29.541Z,99169.27
2023-04-18T22:14:34.106Z,99167.09
2023-04-18T22:19:36.226Z,99160.04
2023-04-18T22:24:37.953Z,99157.08
2023-04-18T22:29:39.657Z,99152.15
2023-04-18T22:34:41.553Z,99144.97
2023-04-18T22:39:43.250Z,99140.20
2023-04-18T22:44:46.168Z,99135.09
2023-04-18T22:49:47.891Z,99132.60
2023-04-18T22:54:49.616Z,99128.73
2023-04-18T22:59:51.450Z,99118.31
2023-04-18T23:04:53.504Z,99112.03
2023-04-18T23:09:56.085Z,99103.60
2023-04-18T23:14:58.655Z,99097.93
2023-04-18T23:20:01.299Z,99090.61
2023-04-18T23:25:03.275Z,99080.73
2023-04-18T23:30:07.900Z,99076.19
2023-04-18T23:35:15.692Z,99070.97
2023-04-18T23:40:18.347Z,99063.34
2023-04-18T23:45:20.233Z,99054.66
2023-04-18T23:50:23.610Z,99049.64
2023-04-18T23:55:25.374Z,99042.77
